createdAt,value
2023-01-20T00:01:20.547Z,32.67
2023-01-20T00:03:48.199Z,31.73
2023-01-20T00:06:15.268Z,32.83
2023-01-20T00:08:42.492Z,29.73
2023-01-20T00:11:12.704Z,27.88
2023-01-20T00:13:40.092Z,29.48
2023-01-20T00:16:09.504Z,29.55
2023-01-20T00:18:37.047Z,35.63
2023-01-20T00:21:08.068Z,32.28
2023-01-20T00:23:35.560Z,28.52
2023-01-20T00:26:11.283Z,26.40
2023-01-20T00:28:38.717Z,30.13
2023-01-20T00:31:16.034Z,28.88
2023-01-20T00:33:43.161Z,25.35
2023-01-20T00:36:11.192Z,32.20
2023-01-20T00:38:38.584Z,30.73
2023-01-20T00:41:06.112Z,28.33
2023-01-20T00:43:33.370Z,31.00
2023-01-20T00:46:00.439Z,30.00
2023-01-20T00:48:27.442Z,25.85
2023-01-20T00:50:54.479Z,28.70
2023-01-20T00:53:21.506Z,27.90
2023-01-20T00:55:48.431Z,34.55
2023-01-20T00:58:15.759Z,33.42
2023-01-20T01:00:43.183Z,29.17
2023-01-20T01:03:13.028Z,28.05
2023-01-20T01:05:40.108Z,28.00
2023-01-20T01:08:07.166Z,34.63
2023-01-20T01:10:34.090Z,30.05
2023-01-20T01:13:03.182Z,29.27
2023-01-20T01:15:30.275Z,34.63
2023-01-20T01:17:58.816Z,30.85
2023-01-20T01:20:26.851Z,28.60
2023-01-20T01:22:53.811Z,29.83
2023-01-20T01:25:20.987Z,31.58
2023-01-20T01:27:47.912Z,31.73
2023-01-20T01:30:14.917Z,30.13
2023-01-20T01:32:41.808Z,34.53
2023-01-20T01:35:08.916Z,26.80
2023-01-20T01:37:35.839Z,28.15
2023-01-20T01:40:02.845Z,29.70
2023-01-20T01:42:29.925Z,27.35
2023-01-20T01:45:12.381Z,32.58
2023-01-20T01:47:48.252Z,31.92
2023-01-20T01:50:20.470Z,30.77
2023-01-20T01:52:50.382Z,30.35
2023-01-20T01:55:21.049Z,27.23
2023-01-20T01:57:50.305Z,27.05
2023-01-20T02:00:17.518Z,28.83
2023-01-20T02:02:45.878Z,26.15
2023-01-20T02:05:15.188Z,28.48
2023-01-20T02:07:45.352Z,27.98
2023-01-20T02:10:12.469Z,33.72
2023-01-20T02:12:41.312Z,26.58
2023-01-20T02:15:09.131Z,30.35
2023-01-20T02:17:57.586Z,27.10
2023-01-20T02:20:56.936Z,24.13
2023-01-20T02:23:58.732Z,31.33
2023-01-20T02:26:44.057Z,27.75
2023-01-20T02:29:26.678Z,28.35
2023-01-20T02:32:08.392Z,26.95
2023-01-20T02:35:20.037Z,28.20
2023-01-20T02:37:55.482Z,25.05
2023-01-20T02:40:39.633Z,25.02
2023-01-20T02:43:12.006Z,25.00
2023-01-20T02:45:47.716Z,25.33
2023-01-20T02:48:27.806Z,26.67
2023-01-20T02:51:09.317Z,31.65
2023-01-20T02:53:47.902Z,26.52
2023-01-20T02:56:16.970Z,28.88
2023-01-20T02:58:50.418Z,26.77
2023-01-20T03:01:37.208Z,30.02
2023-01-20T03:04:07.523Z,26.20
2023-01-20T03:06:38.157Z,28.88
2023-01-20T03:09:09.058Z,26.55
2023-01-20T03:11:41.170Z,21.83
2023-01-20T03:14:12.584Z,24.17
2023-01-20T03:16:40.605Z,26.17
2023-01-20T03:19:08.207Z,28.77
2023-01-20T03:21:35.417Z,26.23
2023-01-20T03:24:04.573Z,24.33
2023-01-20T03:26:31.853Z,24.23
2023-01-20T03:28:59.666Z,27.63
2023-01-20T03:31:31.032Z,23.85
2023-01-20T03:34:00.888Z,26.60
2023-01-20T03:36:30.291Z,26.80
2023-01-20T03:38:59.396Z,25.13
2023-01-20T03:41:44.472Z,21.13
2023-01-20T03:44:24.095Z,25.70
2023-01-20T03:46:58.861Z,22.83
2023-01-20T03:49:36.645Z,26.63
2023-01-20T03:52:13.683Z,24.90
2023-01-20T03:57:41.906Z,28.35
2023-01-20T04:00:10.812Z,28.35
2023-01-20T04:02:41.837Z,24.45
2023-01-20T04:05:10.337Z,21.38
2023-01-20T04:07:40.204Z,21.08
2023-01-20T04:10:12.296Z,24.58
2023-01-20T04:12:39.877Z,23.17
2023-01-20T04:15:08.171Z,22.75
2023-01-20T04:17:35.114Z,22.55
2023-01-20T04:20:08.008Z,22.70
2023-01-20T04:22:39.112Z,26.83
2023-01-20T04:25:15.606Z,25.63
2023-01-20T04:27:42.654Z,24.33
2023-01-20T04:30:10.479Z,23.77
2023-01-20T04:32:37.420Z,24.75
2023-01-20T04:35:04.621Z,22.85
2023-01-20T04:37:31.606Z,21.92
2023-01-20T04:39:58.638Z,23.73
2023-01-20T04:42:25.796Z,23.38
2023-01-20T04:44:52.736Z,22.73
2023-01-20T04:47:19.703Z,24.52
2023-01-20T04:49:46.607Z,26.35
2023-01-20T04:52:13.598Z,23.35
2023-01-20T04:54:40.584Z,28.55
2023-01-20T04:57:07.562Z,27.02
2023-01-20T04:59:34.646Z,21.45
2023-01-20T05:02:01.725Z,24.17
2023-01-20T05:04:28.825Z,25.35
2023-01-20T05:06:55.780Z,20.52
2023-01-20T05:09:22.774Z,21.88
2023-01-20T05:11:49.677Z,19.23
2023-01-20T05:14:16.603Z,21.15
2023-01-20T05:16:43.920Z,22.38
2023-01-20T05:19:12.667Z,23.73
2023-01-20T05:21:39.731Z,21.45
2023-01-20T05:24:06.863Z,22.13
2023-01-20T05:26:33.767Z,20.63
2023-01-20T05:29:01.025Z,19.40
2023-01-20T05:31:28.030Z,20.73
2023-01-20T05:33:55.039Z,21.98
2023-01-20T05:36:21.935Z,21.85
2023-01-20T05:38:48.852Z,23.38
2023-01-20T05:41:15.912Z,23.55
2023-01-20T05:43:42.859Z,23.65
2023-01-20T05:46:09.814Z,23.20
2023-01-20T05:48:36.815Z,23.40
2023-01-20T05:51:03.852Z,23.05
2023-01-20T05:53:30.822Z,23.95
2023-01-20T05:56:02.400Z,23.85
2023-01-20T05:58:29.989Z,20.90
2023-01-20T06:01:05.563Z,21.20
2023-01-20T06:03:32.574Z,24.00
2023-01-20T06:06:01.160Z,22.45
2023-01-20T06:08:28.128Z,24.88
2023-01-20T06:10:55.392Z,20.63
2023-01-20T06:13:22.528Z,24.27
2023-01-20T06:15:53.786Z,24.08
2023-01-20T06:18:21.940Z,25.95
2023-01-20T06:20:48.876Z,22.75
2023-01-20T06:23:16.209Z,26.23
2023-01-20T06:25:44.052Z,23.15
2023-01-20T06:28:10.969Z,27.42
2023-01-20T06:30:38.745Z,23.88
2023-01-20T06:33:10.668Z,24.67
2023-01-20T06:35:38.361Z,23.98
2023-01-20T06:38:05.303Z,24.85
2023-01-20T06:40:32.225Z,24.55
2023-01-20T06:42:59.461Z,24.05
2023-01-20T06:45:26.517Z,23.17
2023-01-20T06:47:53.481Z,24.48
2023-01-20T06:50:20.400Z,20.35
2023-01-20T06:52:47.347Z,23.38
2023-01-20T06:55:14.754Z,25.02
2023-01-20T06:57:41.823Z,24.55
2023-01-20T07:00:09.572Z,26.77
2023-01-20T07:02:36.489Z,22.35
2023-01-20T07:05:04.762Z,21.35
2023-01-20T07:07:31.745Z,22.23
2023-01-20T07:09:58.692Z,21.63
2023-01-20T07:12:25.667Z,23.55
2023-01-20T07:14:52.620Z,24.50
2023-01-20T07:17:19.565Z,21.70
2023-01-20T07:19:46.556Z,22.35
2023-01-20T07:22:13.646Z,23.80
2023-01-20T07:24:40.587Z,24.92
2023-01-20T07:27:07.491Z,20.80
2023-01-20T07:29:34.532Z,23.83
2023-01-20T07:32:01.494Z,20.42
2023-01-20T07:34:28.521Z,22.70
2023-01-20T07:36:55.487Z,26.02
2023-01-20T07:39:22.457Z,24.52
2023-01-20T07:41:49.842Z,26.80
2023-01-20T07:44:16.915Z,24.08
2023-01-20T07:46:43.866Z,24.27
2023-01-20T07:49:12.404Z,24.20
2023-01-20T07:51:40.069Z,22.77
2023-01-20T07:54:07.209Z,20.88
2023-01-20T07:56:34.209Z,28.73
2023-01-20T07:59:01.226Z,23.17
2023-01-20T08:01:31.027Z,22.83
2023-01-20T08:04:02.400Z,23.90
2023-01-20T08:06:30.195Z,23.35
2023-01-20T08:09:01.161Z,21.17
2023-01-20T08:11:28.871Z,25.25
2023-01-20T08:13:56.052Z,25.23
2023-01-20T08:16:23.279Z,23.67
2023-01-20T08:18:53.032Z,28.90
2023-01-20T08:21:21.449Z,22.85
2023-01-20T08:23:48.633Z,23.88
2023-01-20T08:26:15.822Z,25.75
2023-01-20T08:28:43.020Z,26.20
2023-01-20T08:31:13.239Z,23.48
2023-01-20T08:33:42.658Z,24.40
2023-01-20T08:36:15.356Z,27.20
2023-01-20T08:38:42.881Z,30.73
2023-01-20T08:41:16.543Z,26.48
2023-01-20T08:43:44.125Z,26.02
2023-01-20T08:46:14.182Z,24.90
2023-01-20T08:48:42.715Z,27.02
2023-01-20T08:51:14.391Z,23.20
2023-01-20T08:53:42.597Z,25.63
2023-01-20T08:56:10.892Z,23.77
2023-01-20T08:58:38.580Z,27.48
2023-01-20T09:01:11.828Z,22.85
2023-01-20T09:03:40.130Z,24.73
2023-01-20T09:06:08.612Z,25.77
2023-01-20T09:08:37.311Z,23.20
2023-01-20T09:11:06.124Z,24.80
2023-01-20T09:13:33.264Z,21.85
2023-01-20T09:16:00.596Z,24.90
2023-01-20T09:18:27.648Z,27.88
2023-01-20T09:20:55.035Z,24.25
2023-01-20T09:23:22.004Z,21.48
2023-01-20T09:25:48.942Z,23.13
2023-01-20T09:28:15.945Z,21.55
2023-01-20T09:30:48.077Z,22.05
2023-01-20T09:33:15.354Z,22.92
2023-01-20T09:35:42.443Z,23.85
2023-01-20T09:38:28.586Z,23.50
2023-01-20T09:41:33.306Z,21.88
2023-01-20T09:44:18.291Z,21.95
2023-01-20T09:47:22.466Z,22.90
2023-01-20T09:50:52.948Z,21.30
2023-01-20T09:53:46.956Z,24.60
2023-01-20T09:56:18.285Z,22.80
2023-01-20T09:59:03.571Z,22.13
2023-01-20T10:01:44.769Z,21.20
2023-01-20T10:04:40.114Z,22.48
2023-01-20T10:07:34.993Z,20.45
2023-01-20T10:10:10.826Z,21.38
2023-01-20T10:12:55.651Z,23.17
2023-01-20T10:15:29.892Z,24.48
2023-01-20T10:18:09.740Z,20.50
2023-01-20T10:20:46.998Z,22.90
2023-01-20T10:23:22.767Z,23.95
2023-01-20T10:26:09.850Z,25.02
2023-01-20T10:28:58.614Z,21.85
2023-01-20T10:31:33.511Z,22.73
2023-01-20T10:34:09.168Z,24.17
2023-01-20T10:36:37.049Z,24.60
2023-01-20T10:39:26.581Z,20.20
2023-01-20T10:42:02.282Z,21.83
2023-01-20T10:44:29.223Z,24.08
2023-01-20T10:47:17.274Z,20.50
2023-01-20T10:50:11.933Z,22.55
2023-01-20T10:52:38.900Z,21.30
2023-01-20T10:55:28.545Z,21.50
2023-01-20T10:58:08.309Z,19.48
2023-01-20T11:00:35.920Z,20.63
2023-01-20T11:03:06.320Z,16.92
2023-01-20T11:05:38.318Z,21.10
2023-01-20T11:08:16.622Z,19.88
2023-01-20T11:10:44.400Z,24.23
2023-01-20T11:13:12.218Z,22.08
2023-01-20T11:15:45.218Z,21.67
2023-01-20T11:18:15.135Z,21.27
2023-01-20T11:20:44.892Z,20.92
2023-01-20T11:23:41.024Z,21.55
2023-01-20T11:26:27.939Z,20.73
2023-01-20T11:29:02.837Z,18.77
2023-01-20T11:31:46.790Z,22.40
2023-01-20T11:34:21.415Z,19.77
2023-01-20T11:36:50.190Z,23.35
2023-01-20T11:39:49.437Z,19.88
2023-01-20T11:42:20.439Z,20.40
2023-01-20T11:45:15.264Z,19.75
2023-01-20T11:47:46.461Z,19.60
2023-01-20T11:50:13.807Z,20.15
2023-01-20T11:52:47.340Z,21.77
2023-01-20T11:55:24.584Z,21.13
2023-01-20T11:57:51.476Z,22.52
2023-01-20T12:00:21.357Z,20.90
2023-01-20T12:03:43.479Z,21.55
2023-01-20T12:06:28.137Z,18.95
2023-01-20T12:09:06.882Z,20.65
2023-01-20T12:12:02.338Z,20.33
2023-01-20T12:14:45.864Z,17.08
2023-01-20T12:17:19.024Z,18.25
2023-01-20T12:20:17.106Z,19.95
2023-01-20T12:23:06.269Z,17.15
2023-01-20T12:25:55.702Z,21.08
2023-01-20T12:28:29.374Z,19.15
2023-01-20T12:30:59.109Z,18.88
2023-01-20T12:33:30.972Z,17.40
2023-01-20T12:36:16.936Z,19.00
2023-01-20T12:38:53.215Z,20.10
2023-01-20T12:41:39.012Z,19.00
2023-01-20T12:44:24.806Z,21.98
2023-01-20T12:47:01.715Z,18.52
2023-01-20T12:52:47.347Z,18.48
2023-01-20T12:55:32.352Z,20.13
2023-01-20T12:58:17.314Z,17.45
2023-01-20T13:01:04.107Z,18.20
2023-01-20T13:04:05.432Z,16.73
2023-01-20T13:06:37.787Z,18.10
2023-01-20T13:09:39.828Z,18.70
2023-01-20T13:12:22.340Z,16.20
2023-01-20T13:15:13.392Z,17.10
2023-01-20T13:18:00.367Z,17.63
2023-01-20T13:20:30.542Z,16.77
2023-01-20T13:23:04.426Z,19.75
2023-01-20T13:25:34.157Z,15.98
2023-01-20T13:28:02.343Z,18.20
2023-01-20T13:30:48.022Z,15.98
2023-01-20T13:33:34.911Z,16.08
2023-01-20T13:36:15.329Z,18.50
2023-01-20T13:38:43.145Z,15.85
2023-01-20T13:41:11.065Z,19.45
2023-01-20T13:43:49.042Z,17.30
2023-01-20T13:46:17.131Z,19.15
2023-01-20T13:49:21.647Z,17.25
2023-01-20T13:51:48.727Z,18.90
2023-01-20T13:54:34.174Z,18.60
2023-01-20T13:57:20.444Z,16.63
2023-01-20T13:59:47.807Z,16.08
2023-01-20T14:02:22.148Z,16.42
2023-01-20T14:04:49.463Z,15.77
2023-01-20T14:07:24.631Z,15.25
2023-01-20T14:09:56.825Z,17.38
2023-01-20T14:12:24.064Z,16.08
2023-01-20T14:14:52.284Z,19.45
2023-01-20T14:17:22.862Z,18.27
2023-01-20T14:19:52.699Z,15.77
2023-01-20T14:22:23.985Z,13.88
2023-01-20T14:24:53.010Z,16.15
2023-01-20T14:27:29.787Z,15.27
2023-01-20T14:29:59.840Z,15.45
2023-01-20T14:32:34.800Z,15.85
2023-01-20T14:35:04.592Z,16.02
2023-01-20T14:37:36.629Z,17.10
2023-01-20T14:40:27.228Z,16.98
2023-01-20T14:43:03.077Z,13.05
2023-01-20T14:45:33.008Z,13.73
2023-01-20T14:48:02.852Z,13.23
2023-01-20T14:50:32.349Z,14.02
2023-01-20T14:52:59.417Z,15.48
2023-01-20T14:56:00.955Z,14.10
2023-01-20T14:58:30.676Z,14.20
2023-01-20T15:01:02.933Z,14.60
2023-01-20T15:03:31.056Z,15.70
2023-01-20T15:06:09.040Z,14.07
2023-01-20T15:08:36.793Z,13.82
2023-01-20T15:11:18.803Z,13.98
2023-01-20T15:13:53.040Z,15.60
2023-01-20T15:16:25.812Z,14.85
2023-01-20T15:19:17.615Z,14.90
2023-01-20T15:21:47.302Z,15.13
2023-01-20T15:24:16.945Z,14.85
2023-01-20T15:26:45.041Z,15.30
2023-01-20T15:29:28.931Z,14.35
2023-01-20T15:31:58.201Z,14.80
2023-01-20T15:34:26.099Z,14.20
2023-01-20T15:36:54.581Z,13.70
2023-01-20T15:39:24.367Z,17.10
2023-01-20T15:41:54.108Z,11.88
2023-01-20T15:44:21.864Z,14.43
2023-01-20T15:46:48.862Z,15.57
2023-01-20T15:49:16.753Z,14.70
2023-01-20T15:51:44.541Z,14.02
2023-01-20T15:54:13.808Z,14.23
2023-01-20T15:56:41.885Z,14.15
2023-01-20T15:59:13.780Z,15.95
2023-01-20T16:01:40.935Z,17.10
2023-01-20T16:04:08.039Z,15.80
2023-01-20T16:06:35.249Z,15.93
2023-01-20T16:09:09.120Z,15.82
2023-01-20T16:11:36.120Z,13.35
2023-01-20T16:14:03.038Z,13.93
2023-01-20T16:16:30.146Z,16.48
2023-01-20T16:18:57.188Z,13.95
2023-01-20T16:21:24.309Z,13.45
2023-01-20T16:23:51.363Z,17.48
2023-01-20T16:26:24.148Z,16.58
2023-01-20T16:28:52.490Z,15.65
2023-01-20T16:31:20.068Z,15.70
2023-01-20T16:33:47.433Z,17.00
2023-01-20T16:36:17.952Z,14.80
2023-01-20T16:38:46.200Z,17.05
2023-01-20T16:41:27.738Z,15.38
2023-01-20T16:43:55.548Z,15.18
2023-01-20T16:46:25.633Z,16.45
2023-01-20T16:48:54.605Z,16.40
2023-01-20T16:51:25.446Z,16.42
2023-01-20T16:53:53.348Z,14.98
2023-01-20T16:56:22.374Z,16.00
2023-01-20T16:58:51.784Z,17.77
2023-01-20T17:01:24.839Z,16.92
2023-01-20T17:03:53.987Z,18.52
2023-01-20T17:06:24.103Z,19.45
2023-01-20T17:08:55.988Z,20.40
2023-01-20T17:11:28.438Z,17.52
2023-01-20T17:13:56.515Z,16.77
2023-01-20T17:16:26.132Z,16.80
2023-01-20T17:18:55.254Z,17.92
2023-01-20T17:21:23.576Z,22.00
2023-01-20T17:23:55.271Z,18.55
2023-01-20T17:26:23.582Z,18.10
2023-01-20T17:28:54.971Z,16.48
2023-01-20T17:31:22.746Z,18.35
2023-01-20T17:33:50.485Z,20.50
2023-01-20T17:36:18.258Z,18.42
2023-01-20T17:38:46.068Z,18.23
2023-01-20T17:41:14.392Z,17.55
2023-01-20T17:43:46.029Z,15.80
2023-01-20T17:46:18.686Z,18.30
2023-01-20T17:48:46.752Z,17.42
2023-01-20T17:51:22.926Z,19.48
2023-01-20T17:53:51.556Z,17.75
2023-01-20T17:56:20.668Z,19.20
2023-01-20T17:58:48.966Z,18.13
2023-01-20T18:01:27.889Z,17.40
2023-01-20T18:03:56.949Z,18.48
2023-01-20T18:06:26.089Z,15.98
2023-01-20T18:08:54.271Z,15.07
2023-01-20T18:11:23.156Z,15.68
2023-01-20T18:13:55.436Z,20.20
2023-01-20T18:16:24.244Z,20.00
2023-01-20T18:18:51.334Z,18.48
2023-01-20T18:21:23.446Z,17.83
2023-01-20T18:23:51.391Z,18.85
2023-01-20T18:26:21.489Z,18.55
2023-01-20T18:28:49.312Z,19.70
2023-01-20T18:31:19.239Z,16.98
2023-01-20T18:33:48.805Z,17.35
2023-01-20T18:36:28.742Z,16.40
2023-01-20T18:38:58.802Z,17.63
2023-01-20T18:41:27.703Z,16.08
2023-01-20T18:43:54.684Z,16.60
2023-01-20T18:46:21.675Z,17.55
2023-01-20T18:48:49.200Z,17.33
2023-01-20T18:51:20.437Z,21.70
2023-01-20T18:53:54.401Z,18.52
2023-01-20T18:56:21.642Z,17.05
2023-01-20T18:58:49.749Z,18.15
2023-01-20T19:01:20.112Z,22.08
2023-01-20T19:03:48.193Z,18.98
2023-01-20T19:06:21.068Z,18.50
2023-01-20T19:08:48.628Z,18.60
2023-01-20T19:11:21.330Z,18.67
2023-01-20T19:13:50.118Z,17.67
2023-01-20T19:16:25.638Z,19.17
2023-01-20T19:18:57.980Z,18.65
2023-01-20T19:21:25.935Z,18.60
2023-01-20T19:23:55.142Z,19.60
2023-01-20T19:26:24.149Z,19.65
2023-01-20T19:28:58.362Z,18.42
2023-01-20T19:31:25.679Z,17.23
2023-01-20T19:33:52.780Z,19.10
2023-01-20T19:36:20.475Z,20.75
2023-01-20T19:38:47.639Z,23.33
2023-01-20T19:41:36.244Z,23.85
2023-01-20T19:44:06.769Z,20.90
2023-01-20T19:46:36.904Z,19.27
2023-01-20T19:49:04.013Z,21.02
2023-01-20T19:51:32.134Z,21.50
2023-01-20T19:54:01.220Z,19.98
2023-01-20T19:56:33.366Z,18.05
2023-01-20T19:59:01.279Z,20.20
2023-01-20T20:01:31.776Z,18.27
2023-01-20T20:03:59.957Z,19.65
2023-01-20T20:06:38.382Z,18.95
2023-01-20T20:09:12.248Z,19.80
2023-01-20T20:11:39.743Z,22.05
2023-01-20T20:14:09.035Z,18.63
2023-01-20T20:16:37.574Z,21.42
2023-01-20T20:19:08.376Z,18.90
2023-01-20T20:21:35.395Z,18.02
2023-01-20T20:24:05.270Z,22.98
2023-01-20T20:26:35.706Z,21.20
2023-01-20T20:29:05.305Z,22.58
2023-01-20T20:31:34.310Z,21.17
2023-01-20T20:34:02.709Z,20.33
2023-01-20T20:36:31.198Z,20.58
2023-01-20T20:38:59.325Z,21.42
2023-01-20T20:41:29.080Z,21.65
2023-01-20T20:43:57.024Z,24.80
2023-01-20T20:46:24.385Z,20.23
2023-01-20T20:48:56.212Z,17.67
2023-01-20T20:51:26.106Z,20.58
2023-01-20T20:53:56.644Z,21.63
2023-01-20T20:56:24.651Z,20.80
2023-01-20T20:59:03.053Z,20.95
2023-01-20T21:01:34.320Z,20.88
2023-01-20T21:04:03.165Z,22.77
2023-01-20T21:06:31.234Z,24.38
2023-01-20T21:08:58.895Z,23.80
2023-01-20T21:11:25.929Z,22.65
2023-01-20T21:13:54.070Z,19.85
2023-01-20T21:16:23.495Z,18.80
2023-01-20T21:18:56.370Z,22.38
2023-01-20T21:21:24.253Z,20.40
2023-01-20T21:23:53.420Z,21.27
2023-01-20T21:26:23.861Z,22.98
2023-01-20T21:28:51.212Z,24.05
2023-01-20T21:31:22.632Z,24.42
2023-01-20T21:33:54.925Z,24.13
2023-01-20T21:36:23.293Z,22.67
2023-01-20T21:38:51.447Z,21.38
2023-01-20T21:41:19.339Z,21.73
2023-01-20T21:44:06.310Z,20.33
2023-01-20T21:46:38.443Z,20.33
2023-01-20T21:49:25.091Z,20.08
2023-01-20T21:52:10.956Z,22.10
2023-01-20T21:54:39.903Z,19.75
2023-01-20T21:57:07.150Z,21.27
2023-01-20T21:59:34.072Z,22.17
2023-01-20T22:02:01.162Z,21.40
2023-01-20T22:04:28.159Z,18.98
2023-01-20T22:06:55.067Z,19.48
2023-01-20T22:09:22.017Z,17.52
2023-01-20T22:11:49.515Z,16.05
2023-01-20T22:14:16.466Z,19.58
2023-01-20T22:16:43.526Z,16.58
2023-01-20T22:19:13.660Z,17.15
2023-01-20T22:21:40.918Z,16.52
2023-01-20T22:24:08.814Z,16.75
2023-01-20T22:26:35.837Z,15.57
2023-01-20T22:29:02.993Z,14.77
2023-01-20T22:31:31.353Z,15.32
2023-01-20T22:33:59.369Z,15.82
2023-01-20T22:36:26.461Z,15.13
2023-01-20T22:38:54.000Z,16.23
2023-01-20T22:41:21.645Z,13.60
2023-01-20T22:43:50.964Z,14.95
2023-01-20T22:46:20.657Z,13.68
2023-01-20T22:48:48.035Z,14.45
2023-01-20T22:51:18.255Z,14.35
2023-01-20T22:53:45.592Z,14.63
2023-01-20T22:56:13.874Z,14.00
2023-01-20T22:58:41.995Z,12.27
2023-01-20T23:01:23.617Z,10.98
2023-01-20T23:04:16.925Z,12.57
2023-01-20T23:06:43.875Z,11.25
2023-01-20T23:09:12.595Z,12.02
2023-01-20T23:11:40.478Z,11.20
2023-01-20T23:14:09.567Z,10.15
2023-01-20T23:16:36.851Z,9.90
2023-01-20T23:19:04.012Z,9.93
2023-01-20T23:21:31.784Z,9.52
2023-01-20T23:23:58.989Z,10.77
2023-01-20T23:26:28.789Z,10.43
2023-01-20T23:28:56.761Z,10.35
2023-01-20T23:31:25.437Z,9.10
2023-01-20T23:33:53.783Z,9.50
2023-01-20T23:36:25.423Z,8.02
2023-01-20T23:38:56.539Z,10.05
2023-01-20T23:41:24.602Z,9.40
2023-01-20T23:43:52.066Z,9.18
2023-01-20T23:46:19.159Z,7.90
2023-01-20T23:48:47.156Z,7.75
2023-01-20T23:51:14.781Z,9.50
2023-01-20T23:53:42.254Z,9.23
2023-01-20T23:56:18.496Z,8.55
2023-01-20T23:58:46.091Z,8.90
